Horsholm, Denmark
Current Conditions -  °F | °C
As of 5:50 AM on Tuesday 23 Dec 2014 (Local Time) from EKCH Reporting Station
Broken Clouds Broken Clouds  
Wind Chill: 38°   Ceiling: 22000
Heat Index: 45°   Visibility: 6mi
Dew Point: 41°   Wind: 14mph
Humidity: 87%   Direction: 260°W
Pressure: 29.56"   Gusts: NA
Location:  55.88°N, 12.5°E
Report Text: EKCH 230450Z 26012KT 9999 FEW030 BKN220 07/05 Q1001 NOSIG
Loading
Personal Weather Stations






























Interactive Weather Map New forecast layout! Learn more

10-Day Weather Forecast

Advertisements
Track Severe Weather on mobile